1852 Hurricane NOT_NAMED (1852247N14309)


IBTrACS version v04r00. Visit IBTrACS website for data access.
Please direct all questions to the IBTrACS Q and A forum

Storm track - Intensity - Wind Radii - Intensity Data - Source Data - All data

Summary Information

Storm ID 1852247N14309
Start Sep 3 06Z
Landfall Sep 12 00Z
Max Intensity 100 kt (Sep 9 18Z), 965 mb (Sep 10 12Z)
End Sep 16 18Z
ATCF IDs ,AL031852
Track status Best track data.

Storm track plot

Map of storm track

Intensity plots

Map of storm track

Radial wind information

No radial wind information for this storm


Position and Intensity Table

BASIN ISO_TIME_________ NATURE LAT LON WMO WIND USA WIND MLC WIND MLC PRES
degrees north degrees east kts kts kts mb
NA 1852-09-03 06:00:00 TS 14.00 -51.20 30
NA 09:00:00 TS 14.25 -51.90 30
NA 12:00:00 TS 14.50 -52.60 30
NA 15:00:00 TS 14.75 -53.30 32
NA 18:00:00 TS 15.00 -54.00 35
NA 21:00:00 TS 15.25 -54.69 35
NA 1852-09-04 00:00:00 TS 15.50 -55.40 35
NA 03:00:00 TS 15.75 -56.14 37
NA 06:00:00 TS 16.00 -56.90 40
NA 09:00:00 TS 16.25 -57.65 40
NA 12:00:00 TS 16.50 -58.40 40
NA 15:00:00 TS 16.75 -59.15 42
NA 18:00:00 TS 17.00 -59.90 45
NA 21:00:00 TS 17.25 -60.65 45
NA 1852-09-05 00:00:00 TS 17.50 -61.40 45
NA 03:00:00 TS 17.75 -62.15 45
NA 06:00:00 TS 18.00 -62.90 45
NA 09:00:00 TS 18.25 -63.65 45
NA 12:00:00 TS 18.50 -64.40 45
NA 15:00:00 TS 18.75 -65.15 47
NA 18:00:00 TS 19.00 -65.90 50
NA 21:00:00 TS 19.26 -66.65 52
NA 1852-09-06 00:00:00 TS 19.50 -67.40 55
NA 03:00:00 TS 19.70 -68.15 57
NA 06:00:00 TS 19.90 -68.90 60
NA 09:00:00 TS 20.14 -69.65 60
NA 12:00:00 TS 20.40 -70.40 60
NA 15:00:00 TS 20.65 -71.15 62
NA 18:00:00 TS 20.90 -71.90 65
NA 21:00:00 TS 21.16 -72.67 65
NA 1852-09-07 00:00:00 TS 21.40 -73.40 65
NA 03:00:00 TS 21.61 -74.02 65
NA 06:00:00 TS 21.80 -74.60 65
NA 09:00:00 TS 21.95 -75.21 65
NA 12:00:00 TS 22.10 -75.80 65
NA 15:00:00 TS 22.30 -76.35 65
NA 18:00:00 TS 22.50 -76.90 65
NA 21:00:00 TS 22.65 -77.49 65
NA 1852-09-08 00:00:00 TS 22.80 -78.10 65
NA 03:00:00 TS 23.00 -78.70 67
NA 06:00:00 TS 23.20 -79.30 70
NA 09:00:00 TS 23.35 -79.91 72
NA 12:00:00 TS 23.50 -80.50 75
NA 15:00:00 TS 23.68 -81.05 77
NA 18:00:00 TS 23.90 -81.60 80
NA 21:00:00 TS 24.13 -82.19 82
NA 1852-09-09 00:00:00 TS 25.07 -85.33 70 70 85
NA 03:00:00 TS 25.57 -86.72 70 87
NA 06:00:00 TS 25.90 -87.40 70 70 90
NA 09:00:00 TS 26.14 -87.75 70 92
NA 12:00:00 TS 26.27 -87.70 70 70 95
NA 15:00:00 TS 26.36 -87.54 70 97
NA 18:00:00 TS 26.47 -87.33 70 70 100
NA 21:00:00 TS 26.63 -87.13 70 100
NA 1852-09-10 00:00:00 TS 26.80 -86.90 70 70 100
NA 03:00:00 TS 26.91 -86.64 70 100
NA 06:00:00 TS 27.00 -86.40 70 70 100
NA 09:00:00 TS 27.12 -86.24 70 100
NA 12:00:00 TS 27.23 -86.07 70 70 100 965
NA 15:00:00 TS 27.31 -85.81 70 100
NA 18:00:00 TS 27.37 -85.53 70 70 100
NA 21:00:00 TS 27.45 -85.26 70 97
NA 1852-09-11 00:00:00 TS 27.53 -85.00 70 70 95
NA 03:00:00 TS 27.60 -84.75 70 92
NA 06:00:00 TS 27.67 -84.50 70 70 90
NA 09:00:00 TS 27.72 -84.22 70 87
NA 12:00:00 TS 27.77 -83.93 70 70 85
NA 15:00:00 TS 27.80 -83.65 70 82
NA 18:00:00 TS 27.83 -83.37 70 70 80
NA 21:00:00 TS 27.88 -83.08 70 77
NA 1852-09-12 00:00:00 TS 27.93 -82.80 70 70 75
NA 03:00:00 TS 27.98 -82.52 65 67
NA 06:00:00 TS 28.03 -82.23 60 60 60
NA 09:00:00 TS 28.07 -81.95 55 55
NA 12:00:00 TS 28.13 -81.60 50 50 50
NA 15:00:00 TS 28.22 -81.19 50 50
NA 18:00:00 TS 28.43 -80.60 50 50 50
NA 21:00:00 TS 28.84 -79.75 55 55
NA 1852-09-13 00:00:00 TS 29.40 -78.73 60 60 60
NA 03:00:00 TS 30.00 -77.72 65 62
NA 06:00:00 TS 30.70 -76.60 70 70 65
NA 09:00:00 TS 31.48 -75.34 70 65
NA 12:00:00 TS 32.40 -73.82 70 70 65
NA 15:00:00 TS 33.31 -72.13 70 65
NA 18:00:00 TS 34.13 -70.17 70 70 65
NA 21:00:00 TS 34.60 -67.66 65
NA 1852-09-14 00:00:00 TS 35.20 -65.70 65
NA 03:00:00 TS 36.52 -63.65 65
NA 06:00:00 TS 37.70 -61.50 65
NA 09:00:00 TS 37.96 -59.25 65
NA 12:00:00 TS 37.70 -57.30 65
NA 15:00:00 TS 37.32 -55.96 62
NA 18:00:00 TS 36.80 -54.90 60
NA 21:00:00 TS 36.30 -53.85 60
NA 1852-09-15 00:00:00 TS 35.80 -52.50 60
NA 03:00:00 TS 35.30 -50.48 60
NA 06:00:00 TS 34.80 -48.20 60
NA 09:00:00 TS 34.19 -46.04 60
NA 12:00:00 TS 33.80 -44.00 60
NA 15:00:00 TS 33.89 -42.16 60
NA 18:00:00 TS 34.20 -40.40 60
NA 21:00:00 TS 34.40 -38.60 60
NA 1852-09-16 00:00:00 TS 34.60 -36.80 60
NA 03:00:00 TS 34.80 -35.00 60
NA 06:00:00 ET 35.00 -33.20 60
NA 09:00:00 ET 35.20 -31.40 60
NA 12:00:00 ET 35.40 -29.60 60 981
NA 15:00:00 ET 35.61 -27.80 60
NA 18:00:00 ET 35.80 -26.00 60

Source Information

Agency Information
USA hurdat2-1851-2019-042820.txt:Line=160:UNNAMED
TOKYO
CMA
HKO
NEWDELHI
REUNION
BOM
NADI
WELLINGTON
DS824
TD9636
TD9635
NEUMANN
MLC

All available IBTrACS Data

SEASON BASIN SUBBASIN ISO_TIME_________ NATURE LAT LON WMO WIND WMO AGENCY DIST2LAND LANDFALL IFLAG USA AGENCY USA ATCF_ID USA LAT USA LON USA RECORD USA STATUS USA WIND USA SSHS MLC LAT MLC LON MLC CLASS MLC WIND MLC PRES STORM SPEED STORM DIR
Year degrees north degrees east kts km km degrees north degrees east kts 1 degrees north degrees east kts mb kts degrees
1852 NA NA 1852-09-03 06:00:00 TS 14.00 -51.20 964 961 _____________O -1 14.00 -51.20 TD 30 14 290
1852 NA NA 09:00:00 TS 14.25 -51.90 973 965 _____________P -1 14.25 -51.90 TD 30 14 290
1852 NA NA 12:00:00 TS 14.50 -52.60 979 948 _____________O -1 14.50 -52.60 TD 30 14 290
1852 NA NA 15:00:00 TS 14.75 -53.30 948 898 _____________P -1 14.75 -53.30 TD 32 14 290
1852 NA NA 18:00:00 TS 15.00 -54.00 898 848 _____________O -1 15.00 -54.00 TS 35 14 290
1852 NA NA 21:00:00 TS 15.25 -54.69 848 810 _____________P -1 15.25 -54.69 TS 35 14 290
1852 NA NA 1852-09-04 00:00:00 TS 15.50 -55.40 810 771 _____________O -1 15.50 -55.40 TS 35 15 290
1852 NA NA 03:00:00 TS 15.75 -56.14 771 740 _____________P -1 15.75 -56.14 TS 37 15 289
1852 NA NA 06:00:00 TS 16.00 -56.90 740 717 _____________O -1 16.00 -56.90 TS 40 15 289
1852 NA NA 09:00:00 TS 16.25 -57.65 711 706 _____________P -1 16.25 -57.65 TS 40 15 289
1852 NA NA 12:00:00 TS 16.50 -58.40 707 702 _____________O -1 16.50 -58.40 TS 40 15 289
1852 NA NA 15:00:00 TS 16.75 -59.15 699 618 _____________P -1 16.75 -59.15 TS 42 15 289
1852 NA NA 18:00:00 TS 17.00 -59.90 618 541 _____________O -1 17.00 -59.90 TS 45 15 289
1852 NA NA 21:00:00 TS 17.25 -60.65 531 451 _____________P -1 17.25 -60.65 TS 45 15 289
1852 NA CS 1852-09-05 00:00:00 TS 17.50 -61.40 451 374 _____________O -1 17.50 -61.40 TS 45 15 289
1852 NA CS 03:00:00 TS 17.75 -62.15 364 286 _____________P -1 17.75 -62.15 TS 45 15 289
1852 NA CS 06:00:00 TS 18.00 -62.90 286 211 _____________O -1 18.00 -62.90 TS 45 15 289
1852 NA CS 09:00:00 TS 18.25 -63.65 200 127 _____________P -1 18.25 -63.65 TS 45 15 289
1852 NA CS 12:00:00 TS 18.50 -64.40 127 62 _____________O -1 18.50 -64.40 TS 45 15 289
1852 NA CS 15:00:00 TS 18.75 -65.15 53 49 _____________P -1 18.75 -65.15 TS 47 15 289
1852 NA NA 18:00:00 TS 19.00 -65.90 67 67 _____________O -1 19.00 -65.90 TS 50 15 290
1852 NA NA 21:00:00 TS 19.26 -66.65 100 100 _____________P -1 19.26 -66.65 TS 52 15 289
1852 NA NA 1852-09-06 00:00:00 TS 19.50 -67.40 123 113 _____________O -1 19.50 -67.40 TS 55 15 287
1852 NA NA 03:00:00 TS 19.70 -68.15 109 79 _____________P -1 19.70 -68.15 TS 57 15 286
1852 NA NA 06:00:00 TS 19.90 -68.90 79 69 _____________O -1 19.90 -68.90 TS 60 15 287
1852 NA NA 09:00:00 TS 20.14 -69.65 64 64 _____________P -1 20.14 -69.65 TS 60 15 290
1852 NA NA 12:00:00 TS 20.40 -70.40 70 67 _____________O -1 20.40 -70.40 TS 60 15 290
1852 NA NA 15:00:00 TS 20.65 -71.15 89 89 _____________P -1 20.65 -71.15 TS 62 15 290
1852 NA NA 18:00:00 TS 20.90 -71.90 118 42 _____________O -1 20.90 -71.90 HU 65 15 290
1852 NA NA 21:00:00 TS 21.16 -72.67 31 10 _____________P -1 21.16 -72.67 HU 65 15 290
1852 NA NA 1852-09-07 00:00:00 TS 21.40 -73.40 30 30 _____________O -1 21.40 -73.40 HU 65 13 290
1852 NA NA 03:00:00 TS 21.61 -74.02 63 63 _____________P -1 21.61 -74.02 HU 65 12 290
1852 NA NA 06:00:00 TS 21.80 -74.60 121 108 _____________O -1 21.80 -74.60 HU 65 12 287
1852 NA NA 09:00:00 TS 21.95 -75.21 108 108 _____________P -1 21.95 -75.21 HU 65 12 285
1852 NA NA 12:00:00 TS 22.10 -75.80 108 105 _____________O -1 22.10 -75.80 HU 65 11 288
1852 NA NA 15:00:00 TS 22.30 -76.35 98 88 _____________P -1 22.30 -76.35 HU 65 11 291
1852 NA NA 18:00:00 TS 22.50 -76.90 91 84 _____________O -1 22.50 -76.90 HU 65 11 288
1852 NA NA 21:00:00 TS 22.65 -77.49 84 63 _____________P -1 22.65 -77.49 HU 65 11 285
1852 NA NA 1852-09-08 00:00:00 TS 22.80 -78.10 63 59 _____________O -1 22.80 -78.10 HU 65 12 287
1852 NA NA 03:00:00 TS 23.00 -78.70 78 63 _____________P -1 23.00 -78.70 HU 67 12 290
1852 NA NA 06:00:00 TS 23.20 -79.30 63 45 _____________O -1 23.20 -79.30 HU 70 12 288
1852 NA NA 09:00:00 TS 23.35 -79.91 45 45 _____________P -1 23.35 -79.91 HU 72 11 285
1852 NA NA 12:00:00 TS 23.50 -80.50 55 55 _____________O -1 23.50 -80.50 HU 75 11 288
1852 NA NA 15:00:00 TS 23.68 -81.05 70 67 _____________P -1 23.68 -81.05 HU 77 11 292
1852 NA NA 18:00:00 TS 23.90 -81.60 89 89 _____________O -1 23.90 -81.60 HU 80 11 293
1852 NA NA 21:00:00 TS 24.13 -82.19 111 111 _____________P -1 24.13 -82.19 HU 82 36 289
1852 NA GM 1852-09-09 00:00:00 TS 25.07 -85.33 70 hurdat_atl 298 298 O____________O hurdat_atl AL031852 26.40 -90.40 HU 70 1 24.40 -82.80 HU 85 44 289
1852 NA GM 03:00:00 TS 25.57 -86.72 424 384 P____________P AL031852 26.45 -90.00 HU 70 1 24.69 -83.44 HU 87 20 294
1852 NA GM 06:00:00 TS 25.90 -87.40 70 hurdat_atl 384 351 O____________O hurdat_atl AL031852 26.50 -89.60 HU 70 1 25.00 -84.10 HU 90 11 301
1852 NA GM 09:00:00 TS 26.14 -87.75 348 331 P____________P AL031852 26.56 -89.19 HU 70 1 25.30 -84.87 HU 92 5 324
1852 NA GM 12:00:00 TS 26.27 -87.70 70 hurdat_atl 331 325 O____________O hurdat_atl AL031852 26.60 -88.80 HU 70 1 25.60 -85.50 HU 95 3 40
1852 NA GM 15:00:00 TS 26.36 -87.54 330 325 P____________P AL031852 26.59 -88.44 HU 70 1 25.90 -85.75 HU 97 4 59
1852 NA GM 18:00:00 TS 26.47 -87.33 70 hurdat_atl 330 326 O____________O hurdat_atl AL031852 26.60 -88.10 HU 70 1 26.20 -85.80 MH 100 5 54
1852 NA GM 21:00:00 TS 26.63 -87.13 332 320 P____________P AL031852 26.69 -87.76 HU 70 1 26.51 -85.87 MH 100 5 49
1852 NA GM 1852-09-10 00:00:00 TS 26.80 -86.90 70 hurdat_atl 327 325 O____________O hurdat_atl AL031852 26.80 -87.40 HU 70 1 26.80 -85.90 MH 100 5 58
1852 NA GM 03:00:00 TS 26.91 -86.64 333 316 P____________P AL031852 26.85 -86.98 HU 70 1 27.02 -85.96 MH 100 5 66
1852 NA GM 06:00:00 TS 27.00 -86.40 70 hurdat_atl 316 300 O____________O hurdat_atl AL031852 26.90 -86.60 HU 70 1 27.20 -86.00 MH 100 4 59
1852 NA GM 09:00:00 TS 27.12 -86.24 300 287 P____________P AL031852 26.99 -86.33 HU 70 1 27.38 -86.05 MH 100 4 52
1852 NA GM 12:00:00 TS 27.23 -86.07 70 hurdat_atl 287 270 O____________O hurdat_atl AL031852 27.10 -86.10 HU 70 1 27.50 -86.00 MH 100 965 4 64
1852 NA GM 15:00:00 TS 27.31 -85.81 270 256 P____________P AL031852 27.20 -85.85 HU 70 1 27.52 -85.74 MH 100 5 74
1852 NA GM 18:00:00 TS 27.37 -85.53 70 hurdat_atl 256 242 O____________O hurdat_atl AL031852 27.30 -85.60 HU 70 1 27.50 -85.40 MH 100 5 73
1852 NA GM 21:00:00 TS 27.45 -85.26 242 211 P____________P AL031852 27.40 -85.35 HU 70 1 27.55 -85.09 MH 97 5 71
1852 NA GM 1852-09-11 00:00:00 TS 27.53 -85.00 70 hurdat_atl 211 189 O____________O hurdat_atl AL031852 27.50 -85.10 HU 70 1 27.60 -84.80 HU 95 5 71
1852 NA GM 03:00:00 TS 27.60 -84.75 189 158 P____________P AL031852 27.61 -84.86 HU 70 1 27.60 -84.54 HU 92 5 73
1852 NA GM 06:00:00 TS 27.67 -84.50 70 hurdat_atl 158 129 O____________O hurdat_atl AL031852 27.70 -84.60 HU 70 1 27.60 -84.30 HU 90 5 76
1852 NA GM 09:00:00 TS 27.72 -84.22 129 98 P____________P AL031852 27.76 -84.31 HU 70 1 27.65 -84.05 HU 87 5 79
1852 NA GM 12:00:00 TS 27.77 -83.93 70 hurdat_atl 98 79 O____________O hurdat_atl AL031852 27.80 -84.00 HU 70 1 27.70 -83.80 HU 85 5 81
1852 NA GM 15:00:00 TS 27.80 -83.65 69 50 P____________P AL031852 27.85 -83.70 HU 70 1 27.70 -83.55 HU 82 5 82
1852 NA GM 18:00:00 TS 27.83 -83.37 70 hurdat_atl 50 19 O____________O hurdat_atl AL031852 27.90 -83.40 HU 70 1 27.70 -83.30 HU 80 5 81
1852 NA GM 21:00:00 TS 27.88 -83.08 19 0 P____________P AL031852 27.95 -83.10 HU 70 1 27.74 -83.05 HU 77 5 79
1852 NA NA 1852-09-12 00:00:00 TS 27.93 -82.80 70 hurdat_atl 0 0 O____________O hurdat_atl AL031852 28.00 -82.80 L HU 70 1 27.80 -82.80 HU 75 5 78
1852 NA GM 03:00:00 TS 27.98 -82.52 0 0 P____________P AL031852 28.05 -82.51 HU 65 1 27.85 -82.55 HU 67 5 79
1852 NA NA 06:00:00 TS 28.03 -82.23 60 hurdat_atl 0 0 O____________O hurdat_atl AL031852 28.10 -82.20 TS 60 0 27.90 -82.30 TS 60 5 80
1852 NA NA 09:00:00 TS 28.07 -81.95 0 0 P____________P AL031852 28.13 -81.88 TS 55 0 27.93 -82.09 TS 55 6 80
1852 NA NA 12:00:00 TS 28.13 -81.60 50 hurdat_atl 0 0 O____________O hurdat_atl AL031852 28.20 -81.50 TS 50 0 28.00 -81.80 TS 50 7 77
1852 NA NA 15:00:00 TS 28.22 -81.19 0 0 P____________P AL031852 28.30 -81.06 TS 50 0 28.04 -81.45 TS 50 9 71
1852 NA NA 18:00:00 TS 28.43 -80.60 50 hurdat_atl 0 0 O____________O hurdat_atl AL031852 28.50 -80.50 TS 50 0 28.30 -80.80 TS 50 14 64
1852 NA NA 21:00:00 TS 28.84 -79.75 76 76 P____________P AL031852 28.78 -79.82 TS 55 0 28.96 -79.61 TS 55 19 59
1852 NA NA 1852-09-13 00:00:00 TS 29.40 -78.73 60 hurdat_atl 201 201 O____________O hurdat_atl AL031852 29.20 -79.00 TS 60 0 29.80 -78.20 TS 60 21 57
1852 NA NA 03:00:00 TS 30.00 -77.72 318 318 P____________P AL031852 29.73 -78.07 TS 65 1 30.53 -77.03 TS 62 23 55
1852 NA NA 06:00:00 TS 30.70 -76.60 70 hurdat_atl 368 359 O____________O hurdat_atl AL031852 30.40 -77.00 HU 70 1 31.30 -75.80 HU 65 25 54
1852 NA NA 09:00:00 TS 31.48 -75.34 367 349 P____________P AL031852 31.14 -75.82 HU 70 1 32.17 -74.37 HU 65 29 54
1852 NA NA 12:00:00 TS 32.40 -73.82 70 hurdat_atl 357 355 O____________O hurdat_atl AL031852 32.00 -74.50 HU 70 1 33.00 -72.80 HU 65 33 56
1852 NA NA 15:00:00 TS 33.31 -72.13 417 416 P____________P AL031852 32.97 -73.05 HU 70 1 33.65 -71.21 HU 65 35 60
1852 NA NA 18:00:00 TS 34.13 -70.17 70 hurdat_atl 517 517 O____________O hurdat_atl AL031852 34.00 -71.50 HU 70 1 34.20 -69.50 HU 65 39 71
1852 NA NA 21:00:00 TS 34.60 -67.66 719 719 _____________P AL031852 HU -1 34.60 -67.66 HU 65 38 74
1852 NA NA 1852-09-14 00:00:00 TS 35.20 -65.70 814 789 _____________O -1 35.20 -65.70 HU 65 38 60
1852 NA NA 03:00:00 TS 36.52 -63.65 792 716 _____________P -1 36.52 -63.65 HU 65 42 53
1852 NA NA 06:00:00 TS 37.70 -61.50 720 720 _____________O -1 37.70 -61.50 HU 65 38 68
1852 NA NA 09:00:00 TS 37.96 -59.25 792 792 _____________P -1 37.96 -59.25 HU 65 33 90
1852 NA NA 12:00:00 TS 37.70 -57.30 891 891 _____________O -1 37.70 -57.30 HU 65 27 104
1852 NA NA 15:00:00 TS 37.32 -55.96 975 975 _____________P -1 37.32 -55.96 HU 62 21 115
1852 NA NA 18:00:00 TS 36.80 -54.90 1068 1068 _____________O -1 36.80 -54.90 TS 60 20 121
1852 NA NA 21:00:00 TS 36.30 -53.85 1145 1145 _____________P -1 36.30 -53.85 TS 60 22 117
1852 NA NA 1852-09-15 00:00:00 TS 35.80 -52.50 1202 1202 _____________O -1 35.80 -52.50 TS 60 29 110
1852 NA NA 03:00:00 TS 35.30 -50.48 1277 1277 _____________P -1 35.30 -50.48 TS 60 36 106
1852 NA NA 06:00:00 TS 34.80 -48.20 1377 1377 _____________O -1 34.80 -48.20 TS 60 38 107
1852 NA NA 09:00:00 TS 34.19 -46.04 1506 1506 _____________P -1 34.19 -46.04 TS 60 36 106
1852 NA NA 12:00:00 TS 33.80 -44.00 1620 1620 _____________O -1 33.80 -44.00 TS 60 32 95
1852 NA NA 15:00:00 TS 33.89 -42.16 1688 1688 _____________P -1 33.89 -42.16 TS 60 30 82
1852 NA NA 18:00:00 TS 34.20 -40.40 1747 1747 _____________O -1 34.20 -40.40 TS 60 30 80
1852 NA NA 21:00:00 TS 34.40 -38.60 1826 1826 _____________P -1 34.40 -38.60 TS 60 30 82
1852 NA NA 1852-09-16 00:00:00 TS 34.60 -36.80 1913 1873 _____________O -1 34.60 -36.80 TS 60 30 82
1852 NA NA 03:00:00 TS 34.80 -35.00 1864 1726 _____________P -1 34.80 -35.00 TS 60 30 82
1852 NA NA 06:00:00 ET 35.00 -33.20 1717 1584 _____________O -1 35.00 -33.20 EX 60 30 82
1852 NA NA 09:00:00 ET 35.20 -31.40 1576 1449 _____________P -1 35.20 -31.40 EX 60 30 82
1852 NA NA 12:00:00 ET 35.40 -29.60 1441 1323 _____________O -1 35.40 -29.60 EX 60 981 30 82
1852 NA NA 15:00:00 ET 35.61 -27.80 1316 1209 _____________P -1 35.61 -27.80 EX 60 29 82
1852 NA NA 18:00:00 ET 35.80 -26.00 1202 _____________O -1 35.80 -26.00 EX 60 29 82